createdAt,value
2018-12-16T00:00:25.226Z,933.2
2018-12-16T00:01:25.368Z,933.5
2018-12-16T00:02:25.115Z,933.4
2018-12-16T00:03:24.865Z,933.4
2018-12-16T00:04:24.574Z,933.5
2018-12-16T00:05:24.303Z,933.4
2018-12-16T00:06:24.033Z,931.8
2018-12-16T00:07:23.768Z,933.5
2018-12-16T00:08:23.519Z,933.3
2018-12-16T00:09:23.289Z,933.4
2018-12-16T00:10:23.041Z,933.4
2018-12-16T00:11:23.371Z,933.3
2018-12-16T00:12:23.263Z,933.4
2018-12-16T00:13:23.167Z,933.3
2018-12-16T00:14:23.092Z,933.3
2018-12-16T00:15:22.989Z,933.2
2018-12-16T00:16:22.874Z,933.2
2018-12-16T00:17:22.768Z,933.1
2018-12-16T00:18:22.639Z,933.2
2018-12-16T00:19:22.517Z,933.1
2018-12-16T00:20:22.441Z,933.1
2018-12-16T00:21:22.747Z,933.1
2018-12-16T00:22:22.655Z,933.1
2018-12-16T00:23:22.547Z,933.1
2018-12-16T00:24:22.418Z,933
2018-12-16T00:25:22.326Z,933.1
2018-12-16T00:26:22.206Z,932.9
2018-12-16T00:27:22.088Z,933
2018-12-16T00:28:21.963Z,933
2018-12-16T00:29:21.861Z,933
2018-12-16T00:30:21.766Z,933
2018-12-16T00:31:22.081Z,932.9
2018-12-16T00:32:21.980Z,932.9
2018-12-16T00:33:21.883Z,932.8
2018-12-16T00:34:21.780Z,932.9
2018-12-16T00:35:21.689Z,932.9
2018-12-16T00:36:21.580Z,932.9
2018-12-16T00:37:21.502Z,932.8
2018-12-16T00:38:21.392Z,932.9
2018-12-16T00:39:21.284Z,932.8
2018-12-16T00:40:21.168Z,932.6
2018-12-16T00:41:21.490Z,932.7
2018-12-16T00:42:21.388Z,932.5
2018-12-16T00:43:21.294Z,932.7
2018-12-16T00:44:21.194Z,932.5
2018-12-16T00:45:21.088Z,932.7
2018-12-16T00:46:21.001Z,932.5
2018-12-16T00:47:20.890Z,932.6
2018-12-16T00:48:20.808Z,932.5
2018-12-16T00:49:20.696Z,932.7
2018-12-16T00:50:20.574Z,932.6
2018-12-16T00:51:20.868Z,932.6
2018-12-16T00:52:20.782Z,932.6
2018-12-16T00:53:20.676Z,932.6
2018-12-16T00:54:20.562Z,932.5
2018-12-16T00:55:20.464Z,932.5
2018-12-16T00:56:20.378Z,932.5
2018-12-16T00:57:20.301Z,932.5
2018-12-16T00:58:20.196Z,932.5
2018-12-16T00:59:20.138Z,932.5
2018-12-16T01:00:20.038Z,932.5
2018-12-16T01:01:20.361Z,932.3
2018-12-16T01:02:20.105Z,932.1
2018-12-16T01:03:19.846Z,932.5
2018-12-16T01:04:19.569Z,932.4
2018-12-16T01:05:19.301Z,931.2
2018-12-16T01:06:19.050Z,932.5
2018-12-16T01:07:18.783Z,932.3
2018-12-16T01:08:18.536Z,932.4
2018-12-16T01:09:18.263Z,932.4
2018-12-16T01:10:17.989Z,932.3
2018-12-16T01:11:18.294Z,932.2
2018-12-16T01:12:18.191Z,932.3
2018-12-16T01:13:18.078Z,932.3
2018-12-16T01:14:18.004Z,932.2
2018-12-16T01:15:17.887Z,932.4
2018-12-16T01:16:17.768Z,932.3
2018-12-16T01:17:17.644Z,932.3
2018-12-16T01:18:17.540Z,932.4
2018-12-16T01:19:17.681Z,932.3
2018-12-16T01:20:17.556Z,932.3
2018-12-16T01:21:17.902Z,932.3
2018-12-16T01:22:17.796Z,932.2
2018-12-16T01:23:17.688Z,932.2
2018-12-16T01:24:19.244Z,932.2
2018-12-16T01:25:19.132Z,932.3
2018-12-16T01:26:19.008Z,932.1
2018-12-16T01:27:18.886Z,932.3
2018-12-16T01:28:18.786Z,932.2
2018-12-16T01:29:18.670Z,932.2
2018-12-16T01:30:18.814Z,932.2
2018-12-16T01:31:19.098Z,932.2
2018-12-16T01:32:18.984Z,932.2
2018-12-16T01:33:18.886Z,932.2
2018-12-16T01:34:19.010Z,932.2
2018-12-16T01:35:18.927Z,932
2018-12-16T01:36:18.807Z,932.1
2018-12-16T01:37:18.700Z,932.1
2018-12-16T01:38:18.590Z,932.1
2018-12-16T01:39:18.484Z,931.9
2018-12-16T01:40:18.370Z,932
2018-12-16T01:41:18.702Z,931.8
2018-12-16T01:42:18.599Z,931.9
2018-12-16T01:43:18.488Z,931.9
2018-12-16T01:44:18.375Z,931.9
2018-12-16T01:45:18.328Z,931.9
2018-12-16T01:46:18.224Z,931.8
2018-12-16T01:47:18.120Z,931.7
2018-12-16T01:48:18.010Z,931.9
2018-12-16T01:49:17.902Z,931.9
2018-12-16T01:50:17.862Z,931.7
2018-12-16T01:51:18.190Z,931.7
2018-12-16T01:52:18.089Z,931.8
2018-12-16T01:53:17.970Z,931.7
2018-12-16T01:54:17.862Z,931.6
2018-12-16T01:55:17.740Z,931.8
2018-12-16T01:56:17.614Z,931.8
2018-12-16T01:57:17.522Z,931.7
2018-12-16T01:58:17.398Z,931.8
2018-12-16T01:59:17.268Z,931.7
2018-12-16T02:00:17.156Z,931.7
2018-12-16T02:01:17.444Z,931.8
2018-12-16T02:02:17.340Z,931.8
2018-12-16T02:03:17.224Z,931.8
2018-12-16T02:04:17.134Z,931.8
2018-12-16T02:05:17.027Z,931.7
2018-12-16T02:06:16.926Z,931.6
2018-12-16T02:07:16.838Z,931.5
2018-12-16T02:08:16.737Z,931.6
2018-12-16T02:09:16.608Z,931.7
2018-12-16T02:10:16.490Z,931.6
2018-12-16T02:11:19.810Z,931.5
2018-12-16T02:12:19.662Z,931.6
2018-12-16T02:13:19.392Z,931.7
2018-12-16T02:14:19.134Z,931.4
2018-12-16T02:15:18.867Z,931.5
2018-12-16T02:16:18.597Z,931.5
2018-12-16T02:17:18.320Z,931.3
2018-12-16T02:18:18.066Z,931.5
2018-12-16T02:19:17.789Z,931.4
2018-12-16T02:20:17.527Z,931.3
2018-12-16T02:21:17.843Z,931.4
2018-12-16T02:22:18.011Z,931.5
2018-12-16T02:23:17.918Z,931.5
2018-12-16T02:24:17.827Z,931.5
2018-12-16T02:25:17.715Z,931.5
2018-12-16T02:26:17.617Z,931.4
2018-12-16T02:27:17.511Z,931.4
2018-12-16T02:28:17.377Z,931.4
2018-12-16T02:29:17.293Z,931.4
2018-12-16T02:30:17.175Z,931.2
2018-12-16T02:31:17.495Z,931.3
2018-12-16T02:32:17.391Z,931.2
2018-12-16T02:33:17.311Z,931.2
2018-12-16T02:34:17.229Z,931.4
2018-12-16T02:35:17.111Z,931.2
2018-12-16T02:36:17.009Z,931.3
2018-12-16T02:37:16.923Z,931.3
2018-12-16T02:38:16.835Z,930.2
2018-12-16T02:39:16.714Z,931.3
2018-12-16T02:40:16.625Z,931.1
2018-12-16T02:41:16.969Z,931.3
2018-12-16T02:42:16.863Z,931.3
2018-12-16T02:43:17.050Z,931.3
2018-12-16T02:44:16.945Z,931.3
2018-12-16T02:45:16.822Z,931.4
2018-12-16T02:46:16.731Z,931.4
2018-12-16T02:47:16.628Z,931.3
2018-12-16T02:48:16.520Z,931.3
2018-12-16T02:49:16.409Z,931.2
2018-12-16T02:50:16.309Z,931.2
2018-12-16T02:51:16.636Z,931.2
2018-12-16T02:52:16.535Z,931.2
2018-12-16T02:53:16.443Z,931.3
2018-12-16T02:54:16.373Z,931.2
2018-12-16T02:55:16.263Z,931.2
2018-12-16T02:56:16.206Z,931.2
2018-12-16T02:57:16.116Z,931.2
2018-12-16T02:58:16.012Z,931.2
2018-12-16T02:59:15.912Z,931.2
2018-12-16T03:00:15.809Z,931.2
2018-12-16T03:01:16.201Z,931.2
2018-12-16T03:02:16.104Z,931.3
2018-12-16T03:03:16.013Z,931.2
2018-12-16T03:04:16.149Z,931.3
2018-12-16T03:05:16.086Z,931.1
2018-12-16T03:06:15.996Z,931.2
2018-12-16T03:07:15.906Z,931.2
2018-12-16T03:08:15.810Z,931
2018-12-16T03:09:15.697Z,931
2018-12-16T03:10:15.602Z,931
2018-12-16T03:11:15.931Z,931.2
2018-12-16T03:12:15.655Z,931.2
2018-12-16T03:13:15.408Z,931
2018-12-16T03:14:15.136Z,931.1
2018-12-16T03:15:14.870Z,931.2
2018-12-16T03:16:14.588Z,931.2
2018-12-16T03:17:14.399Z,931.2
2018-12-16T03:18:14.156Z,931.2
2018-12-16T03:19:13.894Z,931.2
2018-12-16T03:20:13.620Z,931
2018-12-16T03:21:13.960Z,931.1
2018-12-16T03:22:13.883Z,931.1
2018-12-16T03:23:13.780Z,931.2
2018-12-16T03:24:13.708Z,931.1
2018-12-16T03:25:13.654Z,931
2018-12-16T03:26:13.591Z,931.2
2018-12-16T03:27:13.500Z,931.2
2018-12-16T03:28:13.399Z,931.1
2018-12-16T03:29:13.341Z,931.1
2018-12-16T03:30:13.259Z,931.1
2018-12-16T03:31:13.678Z,931.2
2018-12-16T03:32:13.612Z,931
2018-12-16T03:33:13.510Z,930.8
2018-12-16T03:34:13.428Z,931.2
2018-12-16T03:35:13.329Z,931.1
2018-12-16T03:36:13.262Z,931.2
2018-12-16T03:37:13.130Z,931.2
2018-12-16T03:38:13.032Z,931.2
2018-12-16T03:39:12.917Z,931.1
2018-12-16T03:40:12.836Z,931
2018-12-16T03:41:13.213Z,931.2
2018-12-16T03:42:13.126Z,931.2
2018-12-16T03:43:13.029Z,931.2
2018-12-16T03:44:12.926Z,931.2
2018-12-16T03:45:12.864Z,931.2
2018-12-16T03:46:12.792Z,931.2
2018-12-16T03:47:12.675Z,931.1
2018-12-16T03:48:12.568Z,931
2018-12-16T03:49:12.449Z,931.1
2018-12-16T03:50:12.382Z,931.1
2018-12-16T03:51:12.946Z,931.2
2018-12-16T03:52:12.838Z,931.2
2018-12-16T03:53:21.066Z,931
2018-12-16T03:54:20.989Z,931
2018-12-16T03:55:20.879Z,931
2018-12-16T03:56:20.790Z,931.1
2018-12-16T03:57:20.687Z,931.1
2018-12-16T03:58:20.608Z,931.1
2018-12-16T03:59:20.502Z,931.1
2018-12-16T04:00:20.404Z,931
2018-12-16T04:01:20.817Z,931
2018-12-16T04:02:20.700Z,931.1
2018-12-16T04:03:20.596Z,931
2018-12-16T04:04:20.482Z,931
2018-12-16T04:05:20.368Z,931.2
2018-12-16T04:06:20.260Z,930.9
2018-12-16T04:07:20.185Z,930.9
2018-12-16T04:08:20.102Z,931.2
2018-12-16T04:09:19.996Z,929.1
2018-12-16T04:10:19.897Z,931
2018-12-16T04:11:20.223Z,931.2
2018-12-16T04:12:20.128Z,931.1
2018-12-16T04:13:20.033Z,931.1
2018-12-16T04:14:19.942Z,931.1
2018-12-16T04:15:19.845Z,931.1
2018-12-16T04:16:19.730Z,929.2
2018-12-16T04:17:19.612Z,930.9
2018-12-16T04:18:19.536Z,930.3
2018-12-16T04:19:19.441Z,929.6
2018-12-16T04:20:19.334Z,931.1
2018-12-16T04:21:19.700Z,931.2
2018-12-16T04:22:19.587Z,931.2
2018-12-16T04:23:27.687Z,931.2
2018-12-16T04:24:27.609Z,931.2
2018-12-16T04:25:27.506Z,931.2
2018-12-16T04:26:27.394Z,931.2
2018-12-16T04:27:27.292Z,931.2
2018-12-16T04:28:27.178Z,930.3
2018-12-16T04:29:27.116Z,931.2
2018-12-16T04:30:27.014Z,931.2
2018-12-16T04:31:27.335Z,931.2
2018-12-16T04:32:27.223Z,931.3
2018-12-16T04:33:27.119Z,931.2
2018-12-16T04:34:27.004Z,931.1
2018-12-16T04:35:26.924Z,930.5
2018-12-16T04:36:26.813Z,931.1
2018-12-16T04:37:26.693Z,931.4
2018-12-16T04:38:26.605Z,931.4
2018-12-16T04:39:26.522Z,931.1
2018-12-16T04:40:26.449Z,931.3
2018-12-16T04:41:26.801Z,931.3
2018-12-16T04:42:26.541Z,931.2
2018-12-16T04:43:26.282Z,931.3
2018-12-16T04:44:26.086Z,931.3
2018-12-16T04:45:25.837Z,931.3
2018-12-16T04:46:25.573Z,931.3
2018-12-16T04:47:25.448Z,931.3
2018-12-16T04:48:25.185Z,931.2
2018-12-16T04:49:24.908Z,931.2
2018-12-16T04:50:24.627Z,931.2
2018-12-16T04:51:24.951Z,931.3
2018-12-16T04:52:24.849Z,931.2
2018-12-16T04:53:24.773Z,931.1
2018-12-16T04:54:24.683Z,931.1
2018-12-16T04:55:24.569Z,931.3
2018-12-16T04:56:24.487Z,931.1
2018-12-16T04:57:24.399Z,931.3
2018-12-16T04:58:24.303Z,931.3
2018-12-16T04:59:24.207Z,931.2
2018-12-16T05:00:24.093Z,931.3
2018-12-16T05:01:24.411Z,931.1
2018-12-16T05:02:24.415Z,931.1
2018-12-16T05:03:24.317Z,931.1
2018-12-16T05:04:24.210Z,931.3
2018-12-16T05:05:24.095Z,931.2
2018-12-16T05:06:23.995Z,931.3
2018-12-16T05:07:23.911Z,931.2
2018-12-16T05:08:23.797Z,931.3
2018-12-16T05:09:23.693Z,931.3
2018-12-16T05:10:23.559Z,931.4
2018-12-16T05:11:23.897Z,931.3
2018-12-16T05:12:23.773Z,931.2
2018-12-16T05:13:23.669Z,931.2
2018-12-16T05:14:23.548Z,931.3
2018-12-16T05:15:23.440Z,931.3
2018-12-16T05:16:23.340Z,931.2
2018-12-16T05:17:23.243Z,931.3
2018-12-16T05:18:23.185Z,931.2
2018-12-16T05:19:23.083Z,931.3
2018-12-16T05:20:23.059Z,931.2
2018-12-16T05:21:23.375Z,931.2
2018-12-16T05:22:23.107Z,931.2
2018-12-16T05:23:22.845Z,931.3
2018-12-16T05:24:22.585Z,931.2
2018-12-16T05:25:22.315Z,931.1
2018-12-16T05:26:22.045Z,931.3
2018-12-16T05:27:21.811Z,931.1
2018-12-16T05:28:21.528Z,931.2
2018-12-16T05:29:21.282Z,931.1
2018-12-16T05:30:21.009Z,931.2
2018-12-16T05:31:21.149Z,929.4
2018-12-16T05:32:20.869Z,931.2
2018-12-16T05:33:20.596Z,931.1
2018-12-16T05:34:20.336Z,930.9
2018-12-16T05:35:20.072Z,931
2018-12-16T05:36:19.811Z,931
2018-12-16T05:37:19.541Z,931
2018-12-16T05:38:19.261Z,931
2018-12-16T05:39:18.993Z,931
2018-12-16T05:40:18.741Z,930.9
2018-12-16T05:41:19.061Z,929.3
2018-12-16T05:42:18.934Z,930.9
2018-12-16T05:43:18.831Z,931
2018-12-16T05:44:18.731Z,930.9
2018-12-16T05:45:18.703Z,930.9
2018-12-16T05:46:18.607Z,931
2018-12-16T05:47:18.516Z,930.9
2018-12-16T05:48:18.417Z,930.9
2018-12-16T05:49:18.287Z,930.8
2018-12-16T05:50:18.181Z,930.8
2018-12-16T05:51:18.531Z,930.9
2018-12-16T05:52:18.421Z,930.8
2018-12-16T05:53:18.591Z,930.8
2018-12-16T05:54:18.478Z,930.8
2018-12-16T05:55:18.367Z,930.7
2018-12-16T05:56:18.269Z,930.8
2018-12-16T05:57:18.174Z,930.8
2018-12-16T05:58:18.077Z,930.8
2018-12-16T05:59:17.963Z,930.9
2018-12-16T06:00:17.851Z,930.9
2018-12-16T06:01:18.155Z,930.7
2018-12-16T06:02:17.879Z,930.9
2018-12-16T06:03:17.607Z,930.8
2018-12-16T06:04:17.383Z,930.7
2018-12-16T06:05:17.117Z,930.8
2018-12-16T06:06:16.825Z,930.7
2018-12-16T06:07:16.545Z,930.6
2018-12-16T06:08:16.285Z,930.7
2018-12-16T06:09:16.023Z,930.7
2018-12-16T06:10:15.761Z,930.6
2018-12-16T06:11:16.101Z,930.8
2018-12-16T06:12:16.000Z,930.8
2018-12-16T06:13:15.880Z,930.6
2018-12-16T06:14:15.801Z,930.7
2018-12-16T06:15:15.928Z,930.7
2018-12-16T06:16:15.807Z,930.4
2018-12-16T06:17:15.691Z,930.8
2018-12-16T06:18:15.549Z,930.8
2018-12-16T06:19:15.453Z,930.8
2018-12-16T06:20:15.366Z,930.8
2018-12-16T06:21:15.663Z,930.8
2018-12-16T06:22:15.551Z,930.7
2018-12-16T06:23:15.279Z,930.7
2018-12-16T06:24:15.020Z,930.6
2018-12-16T06:25:14.806Z,930.7
2018-12-16T06:26:14.548Z,930.7
2018-12-16T06:27:14.277Z,930.7
2018-12-16T06:28:14.002Z,930.7
2018-12-16T06:29:13.746Z,930.3
2018-12-16T06:30:13.502Z,930.5
2018-12-16T06:31:13.810Z,930.6
2018-12-16T06:32:13.688Z,930.6
2018-12-16T06:33:13.576Z,930.6
2018-12-16T06:34:13.464Z,930.4
2018-12-16T06:35:13.352Z,930.4
2018-12-16T06:36:13.263Z,930.4
2018-12-16T06:37:13.153Z,930.5
2018-12-16T06:38:13.061Z,930.5
2018-12-16T06:39:12.962Z,930.5
2018-12-16T06:40:12.860Z,930.5
2018-12-16T06:41:13.209Z,930.5
2018-12-16T06:42:13.180Z,930.5
2018-12-16T06:43:13.096Z,930.3
2018-12-16T06:44:12.978Z,930.4
2018-12-16T06:45:12.861Z,930.5
2018-12-16T06:46:12.764Z,930.4
2018-12-16T06:47:12.668Z,930.4
2018-12-16T06:48:12.554Z,930.4
2018-12-16T06:49:12.445Z,930.4
2018-12-16T06:50:12.344Z,928.5
2018-12-16T06:51:12.670Z,930.4
2018-12-16T06:52:12.586Z,930.4
2018-12-16T06:53:12.482Z,930.3
2018-12-16T06:54:12.359Z,930.2
2018-12-16T06:55:12.241Z,930.3
2018-12-16T06:56:12.124Z,930.4
2018-12-16T06:57:12.006Z,930.4
2018-12-16T06:58:11.921Z,930.4
2018-12-16T06:59:11.808Z,930.4
2018-12-16T07:00:11.695Z,929.5
2018-12-16T07:01:11.987Z,930.2
2018-12-16T07:02:11.864Z,930.3
2018-12-16T07:03:11.780Z,930.2
2018-12-16T07:04:11.658Z,930.2
2018-12-16T07:05:11.588Z,930.3
2018-12-16T07:06:11.483Z,930.2
2018-12-16T07:07:11.374Z,930.3
2018-12-16T07:08:11.259Z,930.2
2018-12-16T07:09:11.189Z,930.2
2018-12-16T07:10:11.092Z,930.2
2018-12-16T07:11:11.411Z,930.2
2018-12-16T07:12:11.340Z,930.2
2018-12-16T07:13:11.269Z,930.2
2018-12-16T07:14:11.187Z,930.2
2018-12-16T07:15:11.107Z,930.1
2018-12-16T07:16:11.017Z,930.1
2018-12-16T07:17:10.899Z,930.2
2018-12-16T07:18:10.834Z,930.1
2018-12-16T07:19:10.805Z,930.2
2018-12-16T07:20:10.834Z,930.2
2018-12-16T07:21:11.185Z,930.2
2018-12-16T07:22:11.152Z,930.1
2018-12-16T07:23:11.074Z,930.1
2018-12-16T07:24:11.042Z,930.2
2018-12-16T07:25:10.995Z,930.2
2018-12-16T07:26:10.908Z,930.2
2018-12-16T07:27:10.804Z,930.1
2018-12-16T07:28:10.762Z,929.9
2018-12-16T07:29:10.752Z,930
2018-12-16T07:30:10.687Z,930.1
2018-12-16T07:31:11.182Z,930
2018-12-16T07:32:11.141Z,930.1
2018-12-16T07:33:11.171Z,930
2018-12-16T07:34:11.137Z,930.1
2018-12-16T07:35:11.095Z,929.9
2018-12-16T07:36:11.053Z,930.1
2018-12-16T07:37:10.978Z,930.1
2018-12-16T07:38:10.876Z,930.1
2018-12-16T07:39:10.782Z,930.1
2018-12-16T07:40:10.721Z,930
2018-12-16T07:41:11.218Z,930.1
2018-12-16T07:42:11.179Z,930
2018-12-16T07:43:11.256Z,930
2018-12-16T07:44:11.198Z,929.2
2018-12-16T07:45:11.128Z,930.1
2018-12-16T07:46:11.314Z,930.1
2018-12-16T07:47:11.241Z,930.2
2018-12-16T07:48:11.160Z,930.2
2018-12-16T07:49:11.052Z,930.1
2018-12-16T07:50:10.966Z,930.2
2018-12-16T07:51:11.442Z,930.2
2018-12-16T07:52:11.406Z,930
2018-12-16T07:53:11.284Z,930.2
2018-12-16T07:54:17.128Z,930.3
2018-12-16T07:55:17.134Z,930.2
2018-12-16T07:56:17.034Z,930.2
2018-12-16T07:57:16.996Z,930.2
2018-12-16T07:58:16.960Z,930.3
2018-12-16T07:59:16.886Z,930
2018-12-16T08:00:16.814Z,930.2
2018-12-16T08:01:17.188Z,930.2
2018-12-16T08:02:17.091Z,930.1
2018-12-16T08:03:17.020Z,930.1
2018-12-16T08:04:16.918Z,930.1
2018-12-16T08:05:16.868Z,930.2
2018-12-16T08:06:16.781Z,930.2
2018-12-16T08:07:16.681Z,930
2018-12-16T08:08:16.610Z,929.9
2018-12-16T08:09:16.510Z,930
2018-12-16T08:10:16.378Z,930.1
2018-12-16T08:11:16.666Z,930.1
2018-12-16T08:12:16.546Z,930.1
2018-12-16T08:13:16.456Z,930.1
2018-12-16T08:14:16.369Z,929.9
2018-12-16T08:15:16.258Z,930.2
2018-12-16T08:16:16.153Z,930.1
2018-12-16T08:17:16.051Z,930.1
2018-12-16T08:18:17.446Z,930.2
2018-12-16T08:19:17.358Z,930.2
2018-12-16T08:20:17.237Z,930.1
2018-12-16T08:21:17.557Z,928.7
2018-12-16T08:22:17.462Z,930.2
2018-12-16T08:23:17.364Z,929
2018-12-16T08:24:24.174Z,930.1
2018-12-16T08:25:24.070Z,930.2
2018-12-16T08:26:23.969Z,930.2
2018-12-16T08:27:23.864Z,930.2
2018-12-16T08:28:23.760Z,930.2
2018-12-16T08:29:23.638Z,930.1
2018-12-16T08:30:23.539Z,930.1
2018-12-16T08:31:23.861Z,930.2
2018-12-16T08:32:23.749Z,930
2018-12-16T08:33:23.631Z,930.3
2018-12-16T08:34:23.531Z,930.2
2018-12-16T08:35:23.467Z,930.1
2018-12-16T08:36:23.362Z,930.1
2018-12-16T08:37:23.279Z,930.2
2018-12-16T08:38:23.160Z,930.3
2018-12-16T08:39:23.057Z,930.3
2018-12-16T08:40:22.948Z,930.3
2018-12-16T08:41:23.334Z,930.4
2018-12-16T08:42:23.257Z,930.3
2018-12-16T08:43:23.169Z,930.4
2018-12-16T08:44:23.067Z,930.4
2018-12-16T08:45:22.981Z,930.4
2018-12-16T08:46:22.881Z,930.4
2018-12-16T08:47:22.787Z,930.5
2018-12-16T08:48:22.675Z,930.4
2018-12-16T08:49:22.569Z,930.5
2018-12-16T08:50:22.514Z,930.4
2018-12-16T08:51:22.885Z,930.3
2018-12-16T08:52:22.788Z,930.4
2018-12-16T08:53:22.666Z,930.3
2018-12-16T08:54:22.581Z,930.6
2018-12-16T08:55:22.467Z,930.4
2018-12-16T08:56:22.356Z,930.5
2018-12-16T08:57:22.301Z,930.5
2018-12-16T08:58:22.178Z,930.2
2018-12-16T08:59:22.064Z,930.3
2018-12-16T09:00:21.972Z,930.5
2018-12-16T09:01:22.298Z,930.5
2018-12-16T09:02:22.211Z,930.4
2018-12-16T09:03:22.113Z,930.6
2018-12-16T09:04:22.010Z,930.4
2018-12-16T09:05:21.932Z,930.3
2018-12-16T09:06:21.818Z,930.4
2018-12-16T09:07:21.725Z,930.4
2018-12-16T09:08:21.654Z,930.3
2018-12-16T09:09:21.584Z,930.5
2018-12-16T09:10:21.481Z,930.4
2018-12-16T09:11:21.783Z,930.1
2018-12-16T09:12:21.693Z,930.4
2018-12-16T09:13:21.562Z,930.3
2018-12-16T09:14:21.544Z,930.3
2018-12-16T09:15:21.452Z,930.4
2018-12-16T09:16:21.353Z,930.5
2018-12-16T09:17:21.258Z,930.4
2018-12-16T09:18:21.155Z,930.5
2018-12-16T09:19:21.068Z,930.5
2018-12-16T09:20:20.976Z,930.6
2018-12-16T09:21:21.289Z,930.5
2018-12-16T09:22:21.224Z,930.5
2018-12-16T09:23:20.959Z,930.5
2018-12-16T09:24:20.728Z,930.3
2018-12-16T09:25:20.640Z,930.5
2018-12-16T09:26:20.372Z,930.6
2018-12-16T09:27:20.091Z,930.5
2018-12-16T09:28:19.828Z,930.4
2018-12-16T09:29:20.079Z,930.5
2018-12-16T09:30:19.842Z,930.5
2018-12-16T09:31:20.164Z,930.7
2018-12-16T09:32:20.066Z,930.1
2018-12-16T09:33:19.993Z,929.9
2018-12-16T09:34:19.898Z,930.7
2018-12-16T09:35:19.790Z,930.7
2018-12-16T09:36:19.720Z,930.7
2018-12-16T09:37:19.624Z,930.6
2018-12-16T09:38:19.514Z,930.7
2018-12-16T09:39:19.406Z,930.7
2018-12-16T09:40:19.321Z,930.6
2018-12-16T09:41:19.640Z,930.7
2018-12-16T09:42:19.532Z,930.6
2018-12-16T09:43:19.431Z,930.6
2018-12-16T09:44:19.333Z,930.7
2018-12-16T09:45:19.218Z,930.6
2018-12-16T09:46:18.949Z,930.7
2018-12-16T09:47:18.686Z,930.7
2018-12-16T09:48:18.424Z,930.6
2018-12-16T09:49:18.164Z,930.6
2018-12-16T09:50:17.884Z,930.7
2018-12-16T09:51:18.280Z,930.7
2018-12-16T09:52:18.196Z,930.7
2018-12-16T09:53:18.096Z,930.6
2018-12-16T09:54:17.973Z,930.7
2018-12-16T09:55:17.864Z,930.5
2018-12-16T09:56:17.757Z,930.5
2018-12-16T09:57:17.652Z,930.7
2018-12-16T09:58:17.564Z,930.6
2018-12-16T09:59:17.469Z,930.7
2018-12-16T10:00:17.377Z,930.8
2018-12-16T10:01:17.796Z,930.6
2018-12-16T10:02:17.691Z,930.8
2018-12-16T10:03:17.614Z,930.7
2018-12-16T10:04:17.499Z,930.5
2018-12-16T10:05:17.398Z,930.7
2018-12-16T10:06:17.389Z,930.7
2018-12-16T10:07:17.282Z,930.7
2018-12-16T10:08:17.189Z,930.6
2018-12-16T10:09:17.121Z,930.6
2018-12-16T10:10:17.042Z,930.5
2018-12-16T10:11:17.451Z,930.5
2018-12-16T10:12:17.351Z,930.5
2018-12-16T10:13:17.330Z,930.7
2018-12-16T10:14:17.255Z,930.7
2018-12-16T10:15:17.170Z,930.5
2018-12-16T10:16:17.073Z,930.5
2018-12-16T10:17:16.984Z,930.4
2018-12-16T10:18:16.962Z,930.6
2018-12-16T10:19:16.851Z,930.6
2018-12-16T10:20:16.766Z,930.6
2018-12-16T10:21:17.164Z,930.5
2018-12-16T10:22:17.062Z,930.4
2018-12-16T10:23:16.963Z,930.5
2018-12-16T10:24:16.861Z,930.5
2018-12-16T10:25:16.753Z,930.6
2018-12-16T10:26:16.659Z,930.7
2018-12-16T10:27:16.547Z,930.6
2018-12-16T10:28:16.446Z,930.5
2018-12-16T10:29:16.355Z,930.6
2018-12-16T10:30:16.261Z,930.4
2018-12-16T10:31:16.608Z,930.5
2018-12-16T10:32:16.528Z,930.5
2018-12-16T10:33:16.447Z,930.6
2018-12-16T10:34:16.386Z,929.5
2018-12-16T10:35:16.277Z,930.3
2018-12-16T10:36:16.292Z,930.3
2018-12-16T10:37:16.202Z,928.7
2018-12-16T10:38:16.091Z,930.4
2018-12-16T10:39:15.977Z,930.6
2018-12-16T10:40:15.875Z,930.6
2018-12-16T10:41:16.230Z,930.6
2018-12-16T10:42:16.129Z,930.6
2018-12-16T10:43:16.031Z,930.5
2018-12-16T10:44:15.941Z,930.4
2018-12-16T10:45:15.671Z,930.5
2018-12-16T10:46:15.569Z,930.4
2018-12-16T10:47:15.327Z,930.4
2018-12-16T10:48:15.061Z,930.5
2018-12-16T10:49:14.805Z,930.6
2018-12-16T10:50:14.538Z,930.2
2018-12-16T10:51:14.893Z,930.6
2018-12-16T10:52:14.809Z,930.7
2018-12-16T10:53:14.721Z,930.7
2018-12-16T10:54:14.621Z,930.7
2018-12-16T10:55:14.507Z,930.6
2018-12-16T10:56:14.440Z,930.6
2018-12-16T10:57:14.355Z,930.6
2018-12-16T10:58:14.261Z,930.5
2018-12-16T10:59:14.137Z,930.5
2018-12-16T11:00:14.033Z,930.5
2018-12-16T11:01:14.378Z,930.3
2018-12-16T11:02:14.267Z,930.5
2018-12-16T11:03:14.161Z,930.5
2018-12-16T11:04:14.053Z,930.5
2018-12-16T11:05:13.930Z,930.4
2018-12-16T11:06:13.829Z,930.4
2018-12-16T11:07:13.737Z,930.5
2018-12-16T11:08:13.624Z,930.3
2018-12-16T11:09:13.585Z,930.5
2018-12-16T11:10:13.481Z,930.5
2018-12-16T11:11:13.799Z,930.5
2018-12-16T11:12:13.683Z,930.5
2018-12-16T11:13:13.575Z,928.9
2018-12-16T11:14:15.034Z,930.4
2018-12-16T11:15:14.925Z,929.8
2018-12-16T11:16:14.820Z,930.6
2018-12-16T11:17:14.711Z,930.5
2018-12-16T11:18:14.595Z,930.6
2018-12-16T11:19:14.496Z,930.5
2018-12-16T11:20:14.395Z,930.5
2018-12-16T11:21:14.703Z,930.5
2018-12-16T11:22:14.599Z,930.4
2018-12-16T11:23:14.515Z,930.5
2018-12-16T11:24:15.423Z,930.5
2018-12-16T11:25:15.356Z,930.5
2018-12-16T11:26:15.277Z,930.6
2018-12-16T11:27:15.183Z,930.5
2018-12-16T11:28:15.085Z,930.6
2018-12-16T11:29:14.993Z,930.6
2018-12-16T11:30:14.929Z,930.7
2018-12-16T11:31:16.520Z,930.7
2018-12-16T11:32:16.413Z,930.8
2018-12-16T11:33:16.308Z,930.7
2018-12-16T11:34:16.202Z,930.7
2018-12-16T11:35:16.105Z,930.7
2018-12-16T11:36:16.020Z,930.7
2018-12-16T11:37:15.940Z,930.7
2018-12-16T11:38:15.834Z,930.7
2018-12-16T11:39:15.744Z,930.7
2018-12-16T11:40:15.648Z,930.7
2018-12-16T11:41:16.225Z,930.5
2018-12-16T11:42:16.121Z,929.9
2018-12-16T11:43:16.249Z,930.7
2018-12-16T11:44:16.164Z,930.7
2018-12-16T11:45:16.073Z,930.6
2018-12-16T11:46:16.002Z,930.7
2018-12-16T11:47:17.639Z,930.6
2018-12-16T11:48:17.536Z,930.6
2018-12-16T11:49:17.434Z,930.6
2018-12-16T11:50:17.338Z,930.7
2018-12-16T11:51:17.670Z,930.6
2018-12-16T11:52:17.666Z,930.5
2018-12-16T11:53:17.918Z,930.6
2018-12-16T11:54:17.810Z,930.5
2018-12-16T11:55:17.741Z,930.4
2018-12-16T11:56:17.670Z,930.4
2018-12-16T11:57:17.580Z,930.5
2018-12-16T11:58:17.473Z,930.4
2018-12-16T11:59:17.365Z,930.5
2018-12-16T12:00:17.259Z,930.4
2018-12-16T12:01:17.568Z,930.4
2018-12-16T12:02:17.486Z,930.2
2018-12-16T12:03:17.403Z,930.5
2018-12-16T12:04:17.297Z,930.5
2018-12-16T12:05:17.192Z,930.3
2018-12-16T12:06:17.090Z,930.3
2018-12-16T12:07:17.024Z,930.4
2018-12-16T12:08:16.972Z,930.5
2018-12-16T12:09:16.896Z,930.4
2018-12-16T12:10:16.789Z,930.4
2018-12-16T12:11:17.186Z,930.5
2018-12-16T12:12:17.070Z,930.5
2018-12-16T12:13:16.999Z,930.3
2018-12-16T12:14:16.880Z,930.4
2018-12-16T12:15:16.799Z,930.4
2018-12-16T12:16:16.715Z,930.3
2018-12-16T12:17:16.617Z,930.3
2018-12-16T12:18:16.553Z,930.2
2018-12-16T12:19:16.451Z,930.3
2018-12-16T12:20:16.439Z,930.4
2018-12-16T12:21:16.895Z,930.4
2018-12-16T12:22:16.799Z,929
2018-12-16T12:23:16.731Z,930.3
2018-12-16T12:24:16.602Z,930.3
2018-12-16T12:25:20.897Z,930.5
2018-12-16T12:26:20.811Z,930.6
2018-12-16T12:27:20.826Z,930.4
2018-12-16T12:28:20.754Z,930.4
2018-12-16T12:29:20.637Z,930.5
2018-12-16T12:30:20.566Z,930.5
2018-12-16T12:31:20.905Z,930.4
2018-12-16T12:32:20.895Z,930.4
2018-12-16T12:33:20.858Z,930.4
2018-12-16T12:34:20.821Z,930.5
2018-12-16T12:35:20.721Z,930.4
2018-12-16T12:36:20.620Z,930.5
2018-12-16T12:37:20.514Z,930.5
2018-12-16T12:38:20.398Z,930.5
2018-12-16T12:39:20.315Z,930.5
2018-12-16T12:40:20.671Z,930.5
2018-12-16T12:41:21.103Z,930.5
2018-12-16T12:42:21.016Z,930.3
2018-12-16T12:43:20.901Z,930.5
2018-12-16T12:44:20.830Z,930.4
2018-12-16T12:45:20.701Z,930.5
2018-12-16T12:46:20.616Z,930.4
2018-12-16T12:47:20.583Z,930.4
2018-12-16T12:48:20.484Z,930.4
2018-12-16T12:49:20.376Z,930.4
2018-12-16T12:50:20.287Z,930.6
2018-12-16T12:51:20.599Z,930.4
2018-12-16T12:52:20.487Z,930.5
2018-12-16T12:53:20.407Z,930.5
2018-12-16T12:54:20.302Z,930.5
2018-12-16T12:55:27.551Z,930.3